Time;durP1;ratioP1;P1;durP2;ratioP2;P2;SDS_P1;SDS_P2;PMS_P1;PMS_P2;Temp;Humidity;BMP_temperature;BMP_pressure;BME280_temperature;BME280_humidity;BME280_pressure;Samples;Min_cycle;Max_cycle;Signal;HPM_P1;HPM_P2
2022/03/26 00:00:59;;;;;;;38.03;18.48;;;11.90;54.20;;;;;;5057622;28;20214;-90
2022/03/26 00:03:24;;;;;;;39.20;17.70;;;11.90;54.30;;;;;;5060332;28;20185;-90
2022/03/26 00:05:50;;;;;;;33.53;19.53;;;11.80;54.30;;;;;;5045628;28;20560;-90
2022/03/26 01:02:45;;;;;;;38.63;17.10;;;11.40;55.50;;;;;;683228;22;21785;-90
2022/03/26 01:05:11;;;;;;;46.00;17.77;;;11.50;56.10;;;;;;5017623;28;20193;-91
2022/03/26 01:07:37;;;;;;;41.67;20.00;;;11.40;56.10;;;;;;5019964;28;20201;-91
2022/03/26 01:10:06;;;;;;;43.47;21.20;;;11.30;56.30;;;;;;5019652;28;20197;-91
2022/03/26 01:12:32;;;;;;;30.45;16.08;;;11.30;56.40;;;;;;5036104;28;20996;-91
2022/03/26 01:14:58;;;;;;;40.63;17.00;;;11.30;56.60;;;;;;5035983;28;20188;-90
2022/03/26 01:17:24;;;;;;;33.50;16.93;;;11.20;56.60;;;;;;5036624;28;20421;-90
2022/03/26 01:19:51;;;;;;;42.17;17.77;;;11.30;56.00;;;;;;5037095;28;20436;-90
2022/03/26 01:22:16;;;;;;;36.70;17.13;;;11.40;56.50;;;;;;5044485;28;20236;-91
2022/03/26 01:24:42;;;;;;;42.60;18.87;;;11.40;56.50;;;;;;5050578;28;20177;-90
2022/03/26 01:27:08;;;;;;;37.43;18.80;;;11.40;56.80;;;;;;5056929;28;20196;-90
2022/03/26 01:29:38;;;;;;;33.87;18.23;;;11.50;56.40;;;;;;5056013;28;20225;-90
2022/03/26 01:32:07;;;;;;;38.17;19.27;;;11.40;56.40;;;;;;5054607;28;20540;-89
2022/03/26 01:34:34;;;;;;;50.80;20.95;;;11.20;56.80;;;;;;5054271;28;20251;-90
2022/03/26 01:37:02;;;;;;;37.03;17.27;;;11.10;56.90;;;;;;5052329;28;20174;-90
2022/03/26 01:39:29;;;;;;;38.58;19.98;;;11.20;57.10;;;;;;5052825;28;20201;-90
2022/03/26 01:41:59;;;;;;;42.15;18.73;;;11.10;57.20;;;;;;5054107;28;20181;-90
2022/03/26 01:44:25;;;;;;;40.38;18.05;;;11.10;57.30;;;;;;5053723;28;20245;-91
2022/03/26 01:46:53;;;;;;;38.67;17.80;;;11.20;57.30;;;;;;5036978;28;20189;-91
2022/03/26 01:49:19;;;;;;;32.38;16.58;;;11.20;57.20;;;;;;5036829;28;20447;-90
2022/03/26 01:51:45;;;;;;;38.38;16.20;;;11.10;57.20;;;;;;5039387;28;20198;-91
2022/03/26 01:54:13;;;;;;;39.92;17.00;;;11.10;57.30;;;;;;5040754;28;20174;-90
2022/03/26 01:56:40;;;;;;;37.08;18.42;;;11.10;57.40;;;;;;5043291;28;20173;-90
2022/03/26 01:59:07;;;;;;;41.72;18.85;;;11.00;57.40;;;;;;5048462;28;20198;-90
2022/03/26 02:01:33;;;;;;;44.20;18.40;;;10.90;57.70;;;;;;5030945;28;20657;-91
2022/03/26 02:04:00;;;;;;;42.10;18.17;;;10.90;57.80;;;;;;5021879;28;20658;-90
2022/03/26 02:06:31;;;;;;;41.42;18.55;;;10.90;57.40;;;;;;5020136;28;20189;-90
2022/03/26 02:09:01;;;;;;;36.92;18.65;;;10.80;58.00;;;;;;5033738;28;20264;-93
2022/03/26 02:11:35;;;;;;;38.97;16.70;;;10.70;58.30;;;;;;5046310;28;20218;-90
2022/03/26 02:14:02;;;;;;;39.45;20.30;;;10.70;58.50;;;;;;5035863;28;20178;-90
2022/03/26 02:16:30;;;;;;;34.70;18.30;;;10.80;58.40;;;;;;5038782;28;20178;-90
2022/03/26 02:18:56;;;;;;;35.65;19.15;;;10.80;58.40;;;;;;5047980;28;20213;-91
2022/03/26 02:21:23;;;;;;;41.15;19.65;;;10.70;58.50;;;;;;5047930;28;20178;-90
2022/03/26 02:23:50;;;;;;;43.20;20.02;;;10.60;58.80;;;;;;5047516;28;20638;-89
2022/03/26 02:26:18;;;;;;;45.35;18.42;;;10.70;59.00;;;;;;5036149;28;20186;-90
2022/03/26 02:28:45;;;;;;;34.72;18.08;;;10.70;59.00;;;;;;5036768;28;20229;-93
2022/03/26 02:31:15;;;;;;;54.65;19.73;;;10.70;59.10;;;;;;5038917;28;20334;-92
2022/03/26 02:33:42;;;;;;;39.63;18.95;;;10.60;58.90;;;;;;5039285;28;20317;-94
2022/03/26 02:36:08;;;;;;;51.92;20.13;;;10.60;59.20;;;;;;5029355;28;20178;-92
2022/03/26 02:38:35;;;;;;;34.28;16.85;;;10.40;59.50;;;;;;5045258;28;20606;-92
2022/03/26 02:41:01;;;;;;;48.42;19.25;;;10.20;60.10;;;;;;5049000;28;20182;-92
2022/03/26 02:43:27;;;;;;;44.67;18.77;;;10.40;61.00;;;;;;5050810;28;20234;-93
2022/03/26 02:45:53;;;;;;;34.00;18.27;;;10.40;60.20;;;;;;5042275;28;20261;-93
2022/03/26 02:48:19;;;;;;;41.42;18.55;;;10.20;60.00;;;;;;5046688;28;20421;-93
2022/03/26 02:50:45;;;;;;;41.03;18.00;;;11.90;62.40;;;;;;5031175;28;20217;-93
2022/03/26 02:53:12;;;;;;;40.95;18.20;;;10.20;60.60;;;;;;5036879;28;20296;-92
2022/03/26 03:55:14;;;;;;;39.08;19.63;;;9.90;63.20;;;;;;5056356;28;20225;-93
2022/03/26 03:57:42;;;;;;;45.63;18.30;;;9.90;62.50;;;;;;5040696;28;20224;-92
2022/03/26 04:00:09;;;;;;;39.47;19.50;;;9.90;62.50;;;;;;5042515;28;20448;-89
2022/03/26 04:02:35;;;;;;;41.40;20.70;;;9.90;62.70;;;;;;5042482;28;20182;-90
2022/03/26 04:05:01;;;;;;;36.90;19.43;;;9.90;62.70;;;;;;5042534;28;20189;-93
2022/03/26 04:07:29;;;;;;;51.73;21.87;;;10.00;62.40;;;;;;5042940;28;20181;-91
2022/03/26 04:09:54;;;;;;;45.90;19.08;;;9.90;62.50;;;;;;5042291;28;20193;-92
2022/03/26 04:12:20;;;;;;;35.70;19.30;;;9.80;62.50;;;;;;5042713;28;20218;-93
2022/03/26 04:14:46;;;;;;;35.10;21.00;;;9.90;62.60;;;;;;5033943;28;20178;-92
2022/03/26 04:17:12;;;;;;;45.43;21.43;;;10.00;62.50;;;;;;5042582;28;20413;-92
2022/03/26 04:19:40;;;;;;;50.63;20.13;;;9.90;62.50;;;;;;5023918;28;20432;-93
2022/03/26 04:22:06;;;;;;;46.97;19.00;;;9.80;62.60;;;;;;5026703;28;20233;-93
2022/03/26 04:24:35;;;;;;;39.42;20.40;;;9.90;62.80;;;;;;5028465;28;20178;-93
2022/03/26 04:27:02;;;;;;;42.47;18.60;;;9.80;62.70;;;;;;5028472;28;20253;-93
2022/03/26 04:29:27;;;;;;;39.03;20.65;;;9.70;62.70;;;;;;5031115;28;20227;-92
2022/03/26 04:31:54;;;;;;;40.73;19.60;;;9.80;62.70;;;;;;5035842;28;20214;-92
2022/03/26 04:34:19;;;;;;;43.50;22.20;;;9.80;62.80;;;;;;5039389;28;20178;-93
2022/03/26 04:36:45;;;;;;;50.63;22.13;;;9.70;63.10;;;;;;5040411;28;20216;-90
2022/03/26 04:39:11;;;;;;;36.60;16.90;;;9.60;63.30;;;;;;5040109;28;20460;-92
2022/03/26 04:41:37;;;;;;;54.70;20.33;;;9.70;63.50;;;;;;5039708;28;20413;-91
2022/03/26 04:44:03;;;;;;;42.07;19.17;;;9.60;63.90;;;;;;5042452;28;20189;-92
2022/03/26 04:46:29;;;;;;;37.65;18.48;;;9.60;64.10;;;;;;5023147;28;20446;-91
2022/03/26 04:48:55;;;;;;;46.08;21.40;;;9.50;64.10;;;;;;5041804;28;20292;-92
2022/03/26 04:52:11;;;;;;;46.83;20.90;;;9.60;64.00;;;;;;5023373;28;20216;-88
2022/03/26 04:54:38;;;;;;;46.00;21.73;;;9.60;63.70;;;;;;5038337;28;20190;-89
2022/03/26 04:57:05;;;;;;;41.67;20.65;;;9.50;63.90;;;;;;5020401;28;20188;-89
2022/03/26 04:59:31;;;;;;;39.60;19.52;;;9.40;64.10;;;;;;5036931;28;20266;-91
2022/03/26 05:01:57;;;;;;;44.17;21.42;;;9.40;64.40;;;;;;5038533;28;20186;-90
2022/03/26 05:04:23;;;;;;;45.13;19.23;;;9.30;64.50;;;;;;5022460;28;20542;-92
2022/03/26 05:06:48;;;;;;;44.47;19.60;;;9.20;64.60;;;;;;5021675;28;20657;-92
2022/03/26 05:09:14;;;;;;;40.87;19.07;;;9.40;64.70;;;;;;5022314;28;20198;-92
2022/03/26 05:11:40;;;;;;;42.17;20.97;;;9.40;64.50;;;;;;5021649;28;20202;-92
2022/03/26 05:14:06;;;;;;;55.27;20.43;;;9.50;64.50;;;;;;5020376;28;20409;-91
2022/03/26 05:16:32;;;;;;;37.97;18.30;;;9.40;64.50;;;;;;5038159;28;20520;-91
2022/03/26 05:18:58;;;;;;;52.27;22.73;;;9.30;64.70;;;;;;5021500;28;20291;-91
2022/03/26 05:21:23;;;;;;;43.27;21.27;;;9.30;64.80;;;;;;5003912;28;20421;-92
2022/03/26 05:23:50;;;;;;;55.37;21.50;;;9.40;64.70;;;;;;5022108;28;20182;-93
2022/03/26 05:26:15;;;;;;;43.45;20.27;;;9.40;64.80;;;;;;5021453;28;20242;-92
2022/03/26 05:28:41;;;;;;;39.70;19.50;;;9.40;64.80;;;;;;5025843;28;20221;-93
2022/03/26 05:31:07;;;;;;;43.07;21.17;;;9.40;64.70;;;;;;5026240;28;20444;-89
2022/03/26 05:33:33;;;;;;;40.13;19.20;;;9.30;64.70;;;;;;5021642;28;20202;-90
2022/03/26 05:35:59;;;;;;;51.10;22.57;;;9.30;65.00;;;;;;5019996;28;20324;-90
2022/03/26 05:38:25;;;;;;;37.45;20.33;;;9.20;65.00;;;;;;5020012;28;20788;-89
2022/03/26 05:40:52;;;;;;;45.73;21.37;;;9.20;65.40;;;;;;5019424;28;20182;-88
2022/03/26 05:43:18;;;;;;;39.10;19.60;;;9.20;65.50;;;;;;5026908;28;20809;-92
2022/03/26 05:45:44;;;;;;;45.50;19.73;;;9.30;65.30;;;;;;5020920;28;20182;-92
2022/03/26 05:48:10;;;;;;;38.70;19.10;;;9.30;64.60;;;;;;5020157;28;20416;-92
2022/03/26 05:50:36;;;;;;;40.97;20.10;;;9.30;65.30;;;;;;5021026;28;20416;-93
2022/03/26 05:53:02;;;;;;;46.97;20.97;;;9.40;65.00;;;;;;5021456;28;20201;-93
2022/03/26 05:55:28;;;;;;;36.70;19.55;;;9.30;64.90;;;;;;5027377;28;20409;-93
2022/03/26 05:57:55;;;;;;;52.28;20.15;;;9.30;65.10;;;;;;5031644;28;20264;-93
2022/03/26 06:00:22;;;;;;;44.65;22.10;;;9.40;64.60;;;;;;5033483;28;20197;-88
2022/03/26 06:02:51;;;;;;;42.17;19.13;;;9.70;64.20;;;;;;5053814;28;20178;-89
2022/03/26 06:05:18;;;;;;;34.58;19.48;;;9.90;63.40;;;;;;5038044;28;20646;-91
2022/03/26 06:07:46;;;;;;;42.63;18.30;;;10.10;63.10;;;;;;5023125;28;20182;-89
2022/03/26 06:57:20;;;;;;;46.50;19.60;;;11.60;56.20;;;;;;5057371;28;20259;-93
2022/03/26 06:59:46;;;;;;;37.20;19.33;;;11.30;57.00;;;;;;5059158;28;20664;-93
2022/03/26 07:02:12;;;;;;;42.27;19.60;;;11.30;57.60;;;;;;5056979;28;20455;-93
2022/03/26 07:05:09;;;;;;;39.95;19.95;;;11.20;57.90;;;;;;5055892;28;20177;-88
2022/03/26 07:07:36;;;;;;;40.65;19.75;;;11.10;58.50;;;;;;5018076;28;20212;-93
2022/03/26 07:10:03;;;;;;;37.55;20.10;;;11.00;59.00;;;;;;5000206;28;20214;-93
2022/03/26 07:12:29;;;;;;;48.03;20.27;;;11.00;58.90;;;;;;5017054;28;20206;-89
2022/03/26 07:14:56;;;;;;;37.47;18.60;;;11.00;59.10;;;;;;4983688;28;20187;-88
2022/03/26 07:17:46;;;;;;;46.72;19.35;;;11.10;59.20;;;;;;5002092;28;20417;-88
2022/03/26 07:23:35;;;;;;;39.20;18.67;;;11.40;57.70;;;;;;4997436;28;20201;-89
2022/03/26 07:26:02;;;;;;;39.72;20.88;;;11.40;58.30;;;;;;4963471;28;20230;-91
2022/03/26 07:28:28;;;;;;;43.75;19.77;;;11.30;57.70;;;;;;4981397;28;20557;-92
2022/03/26 07:30:54;;;;;;;40.83;18.70;;;11.30;58.50;;;;;;4984603;28;20262;-91
2022/03/26 07:33:21;;;;;;;40.37;20.17;;;11.60;57.60;;;;;;5003252;28;20211;-91
2022/03/26 07:35:47;;;;;;;38.00;17.05;;;11.60;57.20;;;;;;4989720;28;20270;-91
2022/03/26 07:38:13;;;;;;;35.53;19.30;;;11.60;57.20;;;;;;5000929;28;20229;-91
2022/03/26 07:40:39;;;;;;;37.83;19.40;;;11.60;57.90;;;;;;4979115;28;20859;-91
2022/03/26 07:43:05;;;;;;;43.20;17.87;;;11.70;57.50;;;;;;4994685;28;20191;-91
2022/03/26 07:45:30;;;;;;;46.60;20.02;;;11.70;57.40;;;;;;4978119;28;20610;-92
2022/03/26 07:47:56;;;;;;;41.00;20.03;;;11.60;57.50;;;;;;4978010;28;20234;-92
2022/03/26 07:50:23;;;;;;;43.25;19.88;;;11.90;57.50;;;;;;4976795;28;20218;-92
2022/03/26 07:52:50;;;;;;;37.38;19.92;;;12.00;56.90;;;;;;4978429;28;20853;-92
2022/03/26 07:55:15;;;;;;;44.53;21.17;;;12.10;56.50;;;;;;4978910;28;20190;-92
2022/03/26 07:57:41;;;;;;;55.43;22.80;;;12.00;56.30;;;;;;5016854;28;20184;-91
2022/03/26 08:00:09;;;;;;;46.30;21.20;;;12.10;57.10;;;;;;5067973;28;20438;-91
2022/03/26 08:02:34;;;;;;;44.70;22.70;;;12.10;56.40;;;;;;5057603;28;20232;-91
2022/03/26 08:05:00;;;;;;;47.53;23.00;;;12.30;56.30;;;;;;5059648;28;20488;-91
2022/03/26 08:07:27;;;;;;;47.50;24.07;;;12.40;55.90;;;;;;5042460;28;20212;-92
2022/03/26 08:09:53;;;;;;;45.53;23.08;;;12.40;55.60;;;;;;5058736;28;20322;-91
2022/03/26 08:12:19;;;;;;;45.73;20.77;;;12.50;55.40;;;;;;5058825;28;20287;-91
2022/03/26 08:14:44;;;;;;;43.67;22.80;;;12.60;55.10;;;;;;5061077;28;20177;-92
2022/03/26 08:17:10;;;;;;;38.40;20.80;;;12.70;55.00;;;;;;5048704;28;20203;-93
2022/03/26 08:19:36;;;;;;;39.13;22.40;;;12.70;54.60;;;;;;5065046;28;20292;-91
2022/03/26 08:22:03;;;;;;;41.13;20.20;;;12.90;54.50;;;;;;5058491;28;20188;-92
2022/03/26 08:24:29;;;;;;;48.65;22.23;;;12.90;54.30;;;;;;5058080;28;20189;-92
2022/03/26 08:26:58;;;;;;;43.45;22.70;;;13.10;53.90;;;;;;5059100;28;20177;-90
2022/03/26 08:29:24;;;;;;;43.95;22.38;;;13.00;53.60;;;;;;5057758;28;20228;-92
2022/03/26 08:31:51;;;;;;;42.65;22.23;;;13.10;53.30;;;;;;5057309;28;20197;-90
2022/03/26 08:34:18;;;;;;;52.03;22.83;;;13.20;53.10;;;;;;5060049;28;20177;-89
2022/03/26 08:36:44;;;;;;;43.00;22.25;;;13.20;52.80;;;;;;5059800;28;20180;-91
2022/03/26 08:39:10;;;;;;;45.30;21.58;;;12.90;52.50;;;;;;5063652;28;20193;-90
2022/03/26 08:41:36;;;;;;;40.93;20.33;;;13.40;52.70;;;;;;5065586;28;20183;-90
2022/03/26 08:44:02;;;;;;;43.20;22.13;;;13.40;52.80;;;;;;5068215;28;20408;-91
2022/03/26 08:46:27;;;;;;;41.40;21.60;;;13.50;52.70;;;;;;5063566;28;20928;-90
2022/03/26 08:48:53;;;;;;;40.97;21.57;;;13.50;52.50;;;;;;5060275;28;20193;-90
2022/03/26 08:51:19;;;;;;;48.47;23.70;;;;;;;;;;5070780;28;20200;-91
2022/03/26 08:53:45;;;;;;;50.42;22.98;;;14.00;51.50;;;;;;5077057;28;20451;-91
2022/03/26 08:56:11;;;;;;;40.90;21.27;;;14.00;50.90;;;;;;5079000;28;20196;-90
2022/03/26 08:58:42;;;;;;;46.47;22.33;;;14.10;50.60;;;;;;5078475;28;20455;-91
2022/03/26 09:01:08;;;;;;;42.97;21.15;;;14.10;50.30;;;;;;5077804;28;20178;-91
2022/03/26 09:03:37;;;;;;;45.37;22.00;;;14.10;51.20;;;;;;5073955;28;20249;-91
2022/03/26 09:06:06;;;;;;;38.95;22.10;;;14.10;51.10;;;;;;5073653;28;20215;-91
2022/03/26 09:08:36;;;;;;;51.13;23.85;;;14.20;50.70;;;;;;5075830;28;20207;-91
2022/03/26 09:11:04;;;;;;;45.38;22.13;;;14.20;50.30;;;;;;5075127;28;20182;-91
2022/03/26 09:13:30;;;;;;;61.78;23.05;;;14.40;50.30;;;;;;5073069;28;20212;-91
2022/03/26 09:15:56;;;;;;;47.72;21.20;;;14.50;50.10;;;;;;5072346;28;20201;-90
2022/03/26 09:18:22;;;;;;;58.55;23.67;;;14.60;49.80;;;;;;5074944;28;20188;-90
2022/03/26 09:20:48;;;;;;;43.93;23.53;;;14.70;49.40;;;;;;5077786;28;20189;-90
2022/03/26 09:23:14;;;;;;;45.00;23.75;;;14.80;49.40;;;;;;5076374;28;20424;-90
2022/03/26 09:25:42;;;;;;;47.25;24.05;;;15.00;49.20;;;;;;5077076;28;20252;-92
2022/03/26 09:28:08;;;;;;;45.70;23.30;;;14.80;48.20;;;;;;5078487;28;20208;-91
2022/03/26 09:30:36;;;;;;;42.65;20.90;;;14.80;48.50;;;;;;5074173;28;20205;-91
2022/03/26 09:33:03;;;;;;;41.42;21.50;;;15.00;48.30;;;;;;5065584;28;20197;-91
2022/03/26 09:35:29;;;;;;;44.45;22.17;;;15.00;47.80;;;;;;5057887;28;20214;-91
2022/03/26 09:37:55;;;;;;;48.27;22.50;;;15.20;47.80;;;;;;5058234;28;20756;-91
2022/03/26 09:40:22;;;;;;;43.07;19.50;;;15.20;46.90;;;;;;5057575;28;20868;-90
2022/03/26 09:42:49;;;;;;;51.30;23.08;;;15.30;46.50;;;;;;5058261;28;20412;-90
2022/03/26 09:45:16;;;;;;;38.47;21.13;;;15.30;46.50;;;;;;5056463;28;20184;-89
2022/03/26 09:47:42;;;;;;;47.95;20.38;;;15.60;46.50;;;;;;5056689;28;20177;-90
2022/03/26 09:50:17;;;;;;;37.35;19.10;;;15.70;45.90;;;;;;5039874;28;20251;-91
2022/03/26 09:52:43;;;;;;;38.08;18.00;;;15.70;45.40;;;;;;5068741;28;20189;-91
2022/03/26 09:55:12;;;;;;;41.40;18.43;;;15.80;44.80;;;;;;5060484;28;20210;-90
2022/03/26 09:57:39;;;;;;;37.35;18.73;;;15.80;44.50;;;;;;5056122;28;20196;-91
2022/03/26 10:00:14;;;;;;;35.15;19.42;;;16.00;44.40;;;;;;5056120;28;20222;-91
2022/03/26 10:02:40;;;;;;;30.88;16.40;;;15.90;42.60;;;;;;5036658;28;20653;-91
2022/03/26 10:05:08;;;;;;;37.65;17.48;;;15.90;43.40;;;;;;5036580;28;20182;-90
2022/03/26 10:07:36;;;;;;;34.70;17.20;;;15.90;43.30;;;;;;5036857;28;20180;-91
2022/03/26 10:10:03;;;;;;;35.03;17.35;;;16.10;42.90;;;;;;5038486;28;20197;-91
2022/03/26 10:12:29;;;;;;;32.50;17.23;;;16.10;43.00;;;;;;5041763;28;20288;-92
2022/03/26 10:15:04;;;;;;;36.17;19.30;;;16.20;43.60;;;;;;5065758;28;20196;-92
2022/03/26 10:17:33;;;;;;;36.80;18.35;;;16.30;43.40;;;;;;5060401;28;20229;-92
2022/03/26 10:20:07;;;;;;;35.58;19.08;;;16.30;42.90;;;;;;5056295;28;20225;-92
2022/03/26 10:22:41;;;;;;;38.10;17.15;;;16.40;42.80;;;;;;5058224;28;20556;-91
2022/03/26 10:25:12;;;;;;;31.73;17.25;;;16.40;42.20;;;;;;5059220;28;20267;-92
2022/03/26 10:27:46;;;;;;;31.05;15.90;;;16.40;41.80;;;;;;5061606;28;20201;-92
2022/03/26 10:33:22;;;;;;;34.78;16.65;;;16.60;40.90;;;;;;5060759;28;20585;-91
2022/03/26 10:36:01;;;;;;;30.85;17.48;;;16.50;40.70;;;;;;5061727;28;20184;-91
2022/03/26 10:38:29;;;;;;;36.17;16.40;;;16.60;40.40;;;;;;5057896;28;20215;-92
2022/03/26 10:41:06;;;;;;;32.47;14.43;;;16.60;40.00;;;;;;5056744;28;20177;-91
2022/03/26 10:43:32;;;;;;;28.13;12.65;;;16.80;39.50;;;;;;5057305;28;20173;-91
2022/03/26 10:45:59;;;;;;;26.80;14.37;;;;;;;;;;5049946;28;20688;-91
2022/03/26 10:48:30;;;;;;;34.13;14.27;;;16.90;39.70;;;;;;5034632;28;20901;-91
2022/03/26 10:51:06;;;;;;;31.30;14.23;;;16.80;40.10;;;;;;5034653;28;20216;-88
2022/03/26 10:53:36;;;;;;;34.95;14.15;;;16.90;40.30;;;;;;5034557;28;20205;-88
2022/03/26 10:56:04;;;;;;;26.40;13.82;;;17.00;40.20;;;;;;5034711;28;20190;-89
2022/03/26 10:58:35;;;;;;;23.83;12.30;;;17.00;39.80;;;;;;5045132;28;20208;-89
2022/03/26 11:01:02;;;;;;;19.27;10.15;;;17.00;39.80;;;;;;5054540;28;20181;-88
2022/03/26 11:03:28;;;;;;;15.25;8.75;;;17.00;39.60;;;;;;5055959;28;20244;-89
2022/03/26 11:05:56;;;;;;;27.60;9.80;;;17.00;39.50;;;;;;5058659;28;20671;-89
2022/03/26 11:08:32;;;;;;;27.73;10.52;;;17.10;39.30;;;;;;5059107;28;20180;-89
2022/03/26 11:11:06;;;;;;;20.05;10.02;;;17.10;39.80;;;;;;5056207;28;20181;-89
2022/03/26 11:13:36;;;;;;;13.15;9.48;;;17.10;40.10;;;;;;5056050;28;20201;-90
2022/03/26 11:16:11;;;;;;;19.35;9.15;;;17.40;39.30;;;;;;5068850;28;20207;-90
2022/03/26 11:18:42;;;;;;;16.38;9.57;;;17.30;38.90;;;;;;5068189;28;20204;-90
2022/03/26 11:21:28;;;;;;;21.85;10.48;;;17.40;39.10;;;;;;5062409;28;20177;-90
2022/03/26 11:24:16;;;;;;;25.75;12.48;;;17.50;39.20;;;;;;5059532;28;20166;-90
2022/03/26 11:27:09;;;;;;;20.50;10.52;;;17.50;39.30;;;;;;5060456;28;20181;-90
2022/03/26 11:29:41;;;;;;;22.42;11.18;;;17.70;39.80;;;;;;5064217;28;20292;-91
2022/03/26 11:32:18;;;;;;;20.05;12.02;;;17.70;40.10;;;;;;5066073;28;20193;-90
2022/03/26 11:34:44;;;;;;;22.52;11.38;;;17.70;39.20;;;;;;5075247;28;20173;-90
2022/03/26 11:37:11;;;;;;;17.77;10.07;;;17.90;39.00;;;;;;5075723;28;20189;-91
2022/03/26 11:39:58;;;;;;;24.88;10.40;;;18.10;38.70;;;;;;5077349;28;20176;-90
2022/03/26 11:42:40;;;;;;;23.50;10.40;;;18.00;37.50;;;;;;5079041;28;20201;-90
2022/03/26 11:51:16;;;;;;;20.85;9.35;;;18.00;37.10;;;;;;5080906;28;20176;-91
2022/03/26 11:53:44;;;;;;;18.05;11.25;;;18.00;37.10;;;;;;5078942;28;20209;-91
2022/03/26 11:56:28;;;;;;;19.65;10.02;;;18.30;37.30;;;;;;5063370;28;20198;-91
2022/03/26 11:59:05;;;;;;;16.73;8.30;;;18.30;35.90;;;;;;5065705;28;20205;-91
2022/03/26 12:01:45;;;;;;;19.30;8.70;;;18.30;35.50;;;;;;5064286;28;20183;-90
2022/03/26 12:04:16;;;;;;;15.13;9.55;;;18.30;36.00;;;;;;5062850;28;20535;-91
2022/03/26 12:06:48;;;;;;;22.77;11.70;;;18.30;36.80;;;;;;5059463;28;20166;-92
2022/03/26 12:09:33;;;;;;;23.58;11.45;;;18.30;36.90;;;;;;5067768;28;20334;-92
2022/03/26 12:12:10;;;;;;;18.55;10.70;;;18.20;36.90;;;;;;5064748;28;20200;-91
2022/03/26 12:14:56;;;;;;;24.58;10.95;;;18.20;37.40;;;;;;5065642;28;20688;-92
2022/03/26 12:17:47;;;;;;;25.20;11.10;;;18.30;36.90;;;;;;5067595;28;20280;-90
2022/03/26 12:20:37;;;;;;;19.08;11.10;;;18.50;35.90;;;;;;5064848;28;20208;-90
2022/03/26 12:23:19;;;;;;;15.43;8.68;;;18.60;35.60;;;;;;5037570;28;20259;-91
2022/03/26 12:26:01;;;;;;;24.23;12.65;;;18.60;36.30;;;;;;5038444;28;20247;-90
2022/03/26 12:28:27;;;;;;;21.55;10.90;;;18.70;37.20;;;;;;5036578;28;20213;-90
2022/03/26 12:30:56;;;;;;;21.93;10.77;;;18.70;36.90;;;;;;5038574;28;20599;-91
2022/03/26 12:33:23;;;;;;;15.65;10.07;;;18.60;37.20;;;;;;5037848;28;20217;-91
2022/03/26 12:35:52;;;;;;;20.90;10.38;;;18.70;35.40;;;;;;5020890;28;20178;-91
2022/03/26 12:38:19;;;;;;;18.88;11.65;;;18.80;34.70;;;;;;5038222;28;20186;-92
2022/03/26 12:41:03;;;;;;;19.50;10.68;;;18.80;35.10;;;;;;5052572;28;20676;-92
2022/03/26 12:43:29;;;;;;;19.33;9.75;;;18.70;35.30;;;;;;5057513;28;20185;-89
2022/03/26 12:45:56;;;;;;;21.53;9.17;;;18.70;35.50;;;;;;5055585;28;20718;-89
2022/03/26 12:48:26;;;;;;;16.05;9.48;;;18.80;34.40;;;;;;5058170;28;20415;-89
2022/03/26 12:50:52;;;;;;;20.63;10.02;;;18.80;35.00;;;;;;5047843;28;20284;-92
2022/03/26 12:53:19;;;;;;;19.77;10.10;;;18.80;34.90;;;;;;5062851;28;20203;-90
2022/03/26 12:55:57;;;;;;;15.38;8.90;;;;;;;;;;5058017;28;20715;-91
2022/03/26 13:01:12;;;;;;;17.55;10.63;;;18.80;34.20;;;;;;5066487;28;20181;-89
2022/03/26 13:03:38;;;;;;;17.40;9.88;;;18.80;34.70;;;;;;5057519;28;20601;-88
2022/03/26 13:06:10;;;;;;;16.60;9.02;;;19.00;33.60;;;;;;5057250;28;20207;-90
2022/03/26 13:08:36;;;;;;;21.33;10.85;;;19.00;34.10;;;;;;5057822;28;20197;-90
2022/03/26 13:11:07;;;;;;;22.90;11.38;;;18.80;34.40;;;;;;5056964;28;20185;-91
2022/03/26 13:13:51;;;;;;;19.83;9.55;;;18.80;35.10;;;;;;5059645;28;20297;-91
2022/03/26 13:16:21;;;;;;;18.17;10.50;;;18.80;34.60;;;;;;5061096;28;20583;-91
2022/03/26 13:18:49;;;;;;;19.85;9.90;;;18.90;33.80;;;;;;5063141;28;20204;-91
2022/03/26 13:21:20;;;;;;;22.30;10.43;;;19.10;33.50;;;;;;5061871;28;20227;-91
2022/03/26 13:23:58;;;;;;;15.13;9.07;;;19.10;33.20;;;;;;5058429;28;20177;-91
2022/03/26 13:26:43;;;;;;;21.45;8.35;;;19.00;32.70;;;;;;5062947;28;20272;-91
2022/03/26 13:29:09;;;;;;;23.63;9.35;;;19.00;31.60;;;;;;5067844;28;20268;-91
2022/03/26 13:31:45;;;;;;;16.65;7.32;;;19.00;31.60;;;;;;5073674;28;20187;-91
2022/03/26 13:34:13;;;;;;;16.80;8.88;;;19.70;32.60;;;;;;5058633;28;20172;-91
2022/03/26 13:36:38;;;;;;;16.88;8.90;;;19.00;31.80;;;;;;5058987;28;20201;-92
2022/03/26 13:39:28;;;;;;;20.77;10.03;;;19.00;32.30;;;;;;5060958;28;20189;-91
2022/03/26 13:41:54;;;;;;;17.63;10.90;;;19.00;32.50;;;;;;5064563;28;20388;-91
2022/03/26 13:44:23;;;;;;;20.95;9.10;;;19.10;33.00;;;;;;5066137;28;20183;-91
2022/03/26 13:46:51;;;;;;;20.02;10.27;;;19.00;31.90;;;;;;5063321;28;20207;-91
2022/03/26 13:49:31;;;;;;;21.55;9.20;;;19.10;31.90;;;;;;5060191;28;20192;-92
2022/03/26 13:51:59;;;;;;;15.35;9.95;;;19.20;31.50;;;;;;5058381;28;20165;-92
2022/03/26 13:54:34;;;;;;;17.42;10.23;;;19.00;31.60;;;;;;5065727;28;20173;-91
2022/03/26 13:57:02;;;;;;;15.82;8.10;;;19.10;31.60;;;;;;5097215;28;20188;-92
2022/03/26 13:59:28;;;;;;;12.50;7.50;;;19.20;31.20;;;;;;5057392;28;20193;-89
2022/03/26 14:01:56;;;;;;;17.23;8.70;;;19.20;30.60;;;;;;5056934;28;20182;-91
2022/03/26 14:04:28;;;;;;;11.30;7.43;;;19.20;30.30;;;;;;5073858;28;20434;-89
2022/03/26 14:06:54;;;;;;;17.77;8.68;;;19.10;30.00;;;;;;5057543;28;20185;-89
2022/03/26 14:09:24;;;;;;;15.90;8.40;;;19.10;30.00;;;;;;5057843;28;20182;-92
2022/03/26 14:11:51;;;;;;;14.95;9.07;;;;;;;;;;5057562;28;20190;-89
2022/03/26 14:14:17;;;;;;;21.65;9.10;;;19.20;30.00;;;;;;5047704;28;20185;-88
2022/03/26 14:16:42;;;;;;;19.90;9.47;;;19.30;30.90;;;;;;5039670;28;20178;-89
2022/03/26 14:19:08;;;;;;;11.30;7.93;;;19.20;30.90;;;;;;5039342;28;20583;-88
2022/03/26 14:21:34;;;;;;;18.30;8.13;;;19.20;31.00;;;;;;5040977;28;20209;-89
2022/03/26 14:24:00;;;;;;;11.50;7.65;;;19.20;31.30;;;;;;5050224;28;20180;-89
2022/03/26 14:26:33;;;;;;;18.80;9.57;;;19.30;31.50;;;;;;5052377;28;20186;-89
2022/03/26 14:28:59;;;;;;;24.52;10.10;;;19.20;31.70;;;;;;5053471;28;20448;-90
2022/03/26 14:31:24;;;;;;;18.17;9.90;;;19.20;32.40;;;;;;5037167;28;20193;-90
2022/03/26 14:33:51;;;;;;;11.97;7.57;;;19.20;32.20;;;;;;5052072;28;20209;-90
2022/03/26 14:36:16;;;;;;;19.58;10.27;;;19.40;32.00;;;;;;5042650;28;20467;-90
2022/03/26 14:38:42;;;;;;;14.60;9.77;;;19.40;32.60;;;;;;5036368;28;20198;-90
2022/03/26 14:41:10;;;;;;;18.90;9.87;;;19.50;33.30;;;;;;5039962;28;20212;-91
2022/03/26 14:43:36;;;;;;;14.40;9.75;;;19.50;34.10;;;;;;5056619;28;20181;-91
2022/03/26 14:46:02;;;;;;;18.25;8.52;;;19.40;33.80;;;;;;5064145;28;20181;-89
2022/03/26 14:48:28;;;;;;;15.63;9.20;;;19.40;33.30;;;;;;5062382;28;20457;-89
2022/03/26 14:50:54;;;;;;;14.20;8.40;;;19.50;33.70;;;;;;5057485;28;20423;-88
2022/03/26 14:53:20;;;;;;;14.70;9.33;;;19.40;34.30;;;;;;5057793;28;20295;-90
2022/03/26 14:55:49;;;;;;;19.08;11.10;;;19.40;34.70;;;;;;5057993;28;20470;-90
2022/03/26 14:58:17;;;;;;;15.75;10.90;;;19.30;36.10;;;;;;5062214;28;20300;-90
2022/03/26 15:00:43;;;;;;;19.88;11.45;;;19.30;36.60;;;;;;5060304;28;20186;-89
2022/03/26 15:03:09;;;;;;;20.43;9.97;;;19.30;36.80;;;;;;5056295;28;20181;-91
2022/03/26 15:05:35;;;;;;;14.00;9.00;;;19.30;36.20;;;;;;5057252;28;20181;-90
2022/03/26 15:08:01;;;;;;;16.03;10.47;;;19.30;36.30;;;;;;5042832;28;20495;-88
2022/03/26 15:10:27;;;;;;;21.40;8.97;;;19.20;36.40;;;;;;5057236;28;20197;-89
2022/03/26 15:12:53;;;;;;;17.40;9.40;;;19.20;36.60;;;;;;5057870;28;20526;-89
2022/03/26 15:15:18;;;;;;;17.70;9.70;;;19.20;36.50;;;;;;5062299;28;20212;-89
2022/03/26 15:17:44;;;;;;;14.60;9.50;;;19.30;36.70;;;;;;5058397;28;20203;-89
2022/03/26 15:20:10;;;;;;;20.53;10.47;;;19.30;36.60;;;;;;5042807;28;20197;-89
2022/03/26 15:22:37;;;;;;;16.52;9.43;;;19.30;36.60;;;;;;5038507;28;20418;-90
2022/03/26 15:25:04;;;;;;;15.90;9.75;;;19.40;36.30;;;;;;5060202;28;20647;-92
2022/03/26 15:27:30;;;;;;;17.52;10.15;;;19.40;35.60;;;;;;5066134;28;20683;-92
2022/03/26 15:29:56;;;;;;;21.43;11.47;;;19.40;35.90;;;;;;5059167;28;20204;-90
2022/03/26 15:32:22;;;;;;;19.00;9.77;;;19.50;36.00;;;;;;5042360;28;21070;-91
2022/03/26 15:34:48;;;;;;;15.95;10.40;;;19.50;36.30;;;;;;5043510;28;20413;-91